createdAt,value
2022-09-10T00:12:40.737Z,14.14
2022-09-10T00:27:43.695Z,14.13
2022-09-10T00:42:46.921Z,14.03
2022-09-10T00:57:55.086Z,14.02
2022-09-10T01:13:30.098Z,14.05
2022-09-10T01:28:42.089Z,14.12
2022-09-10T01:43:45.442Z,14.05
2022-09-10T01:58:49.377Z,14.03
2022-09-10T02:13:59.644Z,14.00
2022-09-10T02:29:26.111Z,14.06
2022-09-10T02:44:29.410Z,14.06
2022-09-10T02:59:33.209Z,14.06
2022-09-10T03:14:36.967Z,13.96
2022-09-10T03:29:40.061Z,13.96
2022-09-10T03:44:43.409Z,13.89
2022-09-10T03:59:46.939Z,13.89
2022-09-10T04:14:50.213Z,13.80
2022-09-10T04:29:53.454Z,13.77
2022-09-10T04:44:57.376Z,13.76
2022-09-10T05:00:01.683Z,13.77
2022-09-10T05:15:07.613Z,13.80
2022-09-10T05:30:11.144Z,13.68
2022-09-10T05:45:14.304Z,13.69
2022-09-10T06:00:19.595Z,13.93
2022-09-10T06:15:33.543Z,13.89
2022-09-10T06:30:37.413Z,13.86
2022-09-10T06:45:41.333Z,13.96
2022-09-10T07:00:59.434Z,14.15
2022-09-10T07:16:03.700Z,14.50
2022-09-10T07:31:13.828Z,14.86
2022-09-10T07:46:21.892Z,15.08
2022-09-10T08:01:28.113Z,15.27
2022-09-10T08:16:33.298Z,15.37
2022-09-10T08:31:41.796Z,15.39
2022-09-10T08:46:59.098Z,15.40
2022-09-10T09:02:10.172Z,15.53
2022-09-10T09:17:31.424Z,15.66
2022-09-10T09:32:40.363Z,15.63
2022-09-10T09:47:50.263Z,15.58
2022-09-10T10:02:54.297Z,15.38
2022-09-10T10:17:57.976Z,15.36
2022-09-10T10:33:04.296Z,15.37
2022-09-10T10:48:36.185Z,15.79
2022-09-10T11:04:24.255Z,15.55
2022-09-10T11:19:35.940Z,15.52
2022-09-10T11:34:57.056Z,15.30
2022-09-10T11:50:03.499Z,15.36
2022-09-10T12:05:38.068Z,15.30
2022-09-10T12:20:49.318Z,15.30
2022-09-10T12:35:52.934Z,15.25
2022-09-10T12:51:01.020Z,15.17
2022-09-10T13:06:07.365Z,15.16
2022-09-10T13:21:24.004Z,15.00
2022-09-10T13:36:48.648Z,15.25
2022-09-10T13:51:56.309Z,15.28
2022-09-10T14:07:28.899Z,15.16
2022-09-10T14:22:32.704Z,15.09
2022-09-10T14:37:42.975Z,15.04
2022-09-10T14:52:46.398Z,15.02
2022-09-10T15:07:50.570Z,15.13
2022-09-10T15:22:54.257Z,15.07
2022-09-10T15:37:58.621Z,14.99
2022-09-10T15:53:02.663Z,14.91
2022-09-10T16:08:07.324Z,14.88
2022-09-10T16:31:23.374Z,15.19
2022-09-10T16:46:28.180Z,15.06
2022-09-10T17:01:31.478Z,14.99
2022-09-10T17:16:40.198Z,14.98
2022-09-10T17:31:47.013Z,14.96
2022-09-10T17:46:51.144Z,15.02
2022-09-10T18:01:55.144Z,14.99
2022-09-10T18:16:59.158Z,14.98
2022-09-10T18:32:02.936Z,15.02
2022-09-10T18:47:17.918Z,15.11
2022-09-10T19:02:27.982Z,15.06
2022-09-10T19:17:32.342Z,15.01
2022-09-10T19:32:36.255Z,14.96
2022-09-10T19:47:40.854Z,14.98
2022-09-10T20:02:50.061Z,14.92
2022-09-10T20:17:53.455Z,14.91
2022-09-10T20:32:57.577Z,14.91
2022-09-10T20:48:02.216Z,14.91
2022-09-10T21:03:05.768Z,14.88
2022-09-10T21:18:09.843Z,14.85
2022-09-10T21:33:13.262Z,14.80
2022-09-10T21:48:16.896Z,14.79
2022-09-10T22:03:20.358Z,14.81
2022-09-10T22:18:24.024Z,14.77
2022-09-10T22:33:26.978Z,14.77
2022-09-10T22:48:29.990Z,14.77
2022-09-10T23:03:33.494Z,14.77
2022-09-10T23:18:37.164Z,14.71
2022-09-10T23:33:45.131Z,14.72
2022-09-10T23:48:49.592Z,14.70
